sensor_id;sensor_type;location;lat;lon;timestamp;P1;durP1;ratioP1;P2;durP2;ratioP2
45136;SDS011;30894;51.740;19.498;2022-11-12T00:00:52;16.60;;;7.18;;
45136;SDS011;30894;51.740;19.498;2022-11-12T00:03:18;21.92;;;7.63;;
45136;SDS011;30894;51.740;19.498;2022-11-12T00:05:46;21.13;;;8.40;;
45136;SDS011;30894;51.740;19.498;2022-11-12T00:08:18;21.03;;;8.03;;
45136;SDS011;30894;51.740;19.498;2022-11-12T00:10:44;21.33;;;7.82;;
45136;SDS011;30894;51.740;19.498;2022-11-12T00:13:12;17.58;;;7.38;;
45136;SDS011;30894;51.740;19.498;2022-11-12T00:15:39;14.93;;;7.25;;
45136;SDS011;30894;51.740;19.498;2022-11-12T00:18:06;18.92;;;7.68;;
45136;SDS011;30894;51.740;19.498;2022-11-12T00:20:33;18.00;;;5.97;;
45136;SDS011;30894;51.740;19.498;2022-11-12T00:22:59;20.27;;;6.93;;
45136;SDS011;30894;51.740;19.498;2022-11-12T00:25:26;15.73;;;7.05;;
45136;SDS011;30894;51.740;19.498;2022-11-12T00:27:52;19.85;;;7.47;;
45136;SDS011;30894;51.740;19.498;2022-11-12T00:30:19;15.48;;;6.53;;
45136;SDS011;30894;51.740;19.498;2022-11-12T00:32:45;22.23;;;7.05;;
45136;SDS011;30894;51.740;19.498;2022-11-12T00:35:11;19.83;;;8.50;;
45136;SDS011;30894;51.740;19.498;2022-11-12T00:37:37;17.30;;;7.00;;
45136;SDS011;30894;51.740;19.498;2022-11-12T00:40:03;18.33;;;7.82;;
45136;SDS011;30894;51.740;19.498;2022-11-12T00:42:30;22.77;;;7.32;;
45136;SDS011;30894;51.740;19.498;2022-11-12T00:44:55;14.95;;;7.65;;
45136;SDS011;30894;51.740;19.498;2022-11-12T00:47:27;18.45;;;7.40;;
45136;SDS011;30894;51.740;19.498;2022-11-12T00:49:54;14.95;;;6.70;;
45136;SDS011;30894;51.740;19.498;2022-11-12T00:52:19;18.10;;;5.95;;
45136;SDS011;30894;51.740;19.498;2022-11-12T00:54:45;13.93;;;6.13;;
45136;SDS011;30894;51.740;19.498;2022-11-12T00:57:12;24.23;;;6.68;;
45136;SDS011;30894;51.740;19.498;2022-11-12T00:59:38;14.45;;;6.38;;
45136;SDS011;30894;51.740;19.498;2022-11-12T01:02:04;18.25;;;7.25;;
45136;SDS011;30894;51.740;19.498;2022-11-12T01:04:30;15.57;;;6.65;;
45136;SDS011;30894;51.740;19.498;2022-11-12T01:06:56;14.88;;;6.10;;
45136;SDS011;30894;51.740;19.498;2022-11-12T01:09:22;22.38;;;7.82;;
45136;SDS011;30894;51.740;19.498;2022-11-12T01:11:48;18.83;;;7.43;;
45136;SDS011;30894;51.740;19.498;2022-11-12T01:14:14;21.77;;;7.90;;
45136;SDS011;30894;51.740;19.498;2022-11-12T01:16:40;22.10;;;6.32;;
45136;SDS011;30894;51.740;19.498;2022-11-12T01:19:08;20.60;;;6.55;;
45136;SDS011;30894;51.740;19.498;2022-11-12T01:21:38;19.85;;;7.18;;
45136;SDS011;30894;51.740;19.498;2022-11-12T01:24:08;17.88;;;7.25;;
45136;SDS011;30894;51.740;19.498;2022-11-12T01:26:34;12.93;;;5.80;;
45136;SDS011;30894;51.740;19.498;2022-11-12T01:29:04;18.27;;;6.75;;
45136;SDS011;30894;51.740;19.498;2022-11-12T01:31:32;15.73;;;7.10;;
45136;SDS011;30894;51.740;19.498;2022-11-12T01:34:01;18.55;;;7.32;;
45136;SDS011;30894;51.740;19.498;2022-11-12T01:36:34;20.80;;;6.47;;
45136;SDS011;30894;51.740;19.498;2022-11-12T01:39:04;17.65;;;6.90;;
45136;SDS011;30894;51.740;19.498;2022-11-12T01:41:32;18.02;;;6.22;;
45136;SDS011;30894;51.740;19.498;2022-11-12T01:44:12;14.20;;;6.68;;
45136;SDS011;30894;51.740;19.498;2022-11-12T01:49:32;13.43;;;5.82;;
45136;SDS011;30894;51.740;19.498;2022-11-12T01:52:22;16.92;;;7.55;;
45136;SDS011;30894;51.740;19.498;2022-11-12T01:54:56;13.40;;;6.60;;
45136;SDS011;30894;51.740;19.498;2022-11-12T01:57:32;15.50;;;7.65;;
45136;SDS011;30894;51.740;19.498;2022-11-12T02:00:08;14.90;;;6.90;;
45136;SDS011;30894;51.740;19.498;2022-11-12T02:02:37;14.95;;;6.78;;
45136;SDS011;30894;51.740;19.498;2022-11-12T02:05:05;16.70;;;6.18;;
45136;SDS011;30894;51.740;19.498;2022-11-12T02:07:35;16.70;;;7.75;;
45136;SDS011;30894;51.740;19.498;2022-11-12T02:10:04;19.92;;;6.97;;
45136;SDS011;30894;51.740;19.498;2022-11-12T02:12:32;13.00;;;7.05;;
45136;SDS011;30894;51.740;19.498;2022-11-12T02:15:18;20.52;;;6.18;;
45136;SDS011;30894;51.740;19.498;2022-11-12T02:17:46;15.00;;;6.43;;
45136;SDS011;30894;51.740;19.498;2022-11-12T02:20:13;16.70;;;7.13;;
45136;SDS011;30894;51.740;19.498;2022-11-12T02:22:39;18.00;;;6.75;;
45136;SDS011;30894;51.740;19.498;2022-11-12T02:25:05;15.38;;;6.70;;
45136;SDS011;30894;51.740;19.498;2022-11-12T02:27:33;17.33;;;6.57;;
45136;SDS011;30894;51.740;19.498;2022-11-12T02:30:00;12.57;;;6.63;;
45136;SDS011;30894;51.740;19.498;2022-11-12T02:32:26;14.18;;;6.05;;
45136;SDS011;30894;51.740;19.498;2022-11-12T02:34:52;12.00;;;5.95;;
45136;SDS011;30894;51.740;19.498;2022-11-12T02:37:18;12.75;;;5.57;;
45136;SDS011;30894;51.740;19.498;2022-11-12T02:39:44;18.13;;;6.45;;
45136;SDS011;30894;51.740;19.498;2022-11-12T02:42:10;15.00;;;5.85;;
45136;SDS011;30894;51.740;19.498;2022-11-12T02:44:37;12.88;;;5.30;;
45136;SDS011;30894;51.740;19.498;2022-11-12T02:47:03;14.10;;;5.80;;
45136;SDS011;30894;51.740;19.498;2022-11-12T02:49:29;13.93;;;5.93;;
45136;SDS011;30894;51.740;19.498;2022-11-12T02:51:55;10.80;;;5.88;;
45136;SDS011;30894;51.740;19.498;2022-11-12T02:54:22;14.43;;;5.40;;
45136;SDS011;30894;51.740;19.498;2022-11-12T02:56:51;16.80;;;5.95;;
45136;SDS011;30894;51.740;19.498;2022-11-12T02:59:17;20.13;;;7.20;;
45136;SDS011;30894;51.740;19.498;2022-11-12T03:01:42;11.20;;;5.72;;
45136;SDS011;30894;51.740;19.498;2022-11-12T03:04:09;21.25;;;6.53;;
45136;SDS011;30894;51.740;19.498;2022-11-12T03:06:34;11.40;;;5.40;;
45136;SDS011;30894;51.740;19.498;2022-11-12T03:09:01;15.65;;;7.00;;
45136;SDS011;30894;51.740;19.498;2022-11-12T03:11:27;16.45;;;6.57;;
45136;SDS011;30894;51.740;19.498;2022-11-12T03:13:53;14.82;;;5.53;;
45136;SDS011;30894;51.740;19.498;2022-11-12T03:16:20;14.60;;;6.00;;
45136;SDS011;30894;51.740;19.498;2022-11-12T03:18:45;15.40;;;6.30;;
45136;SDS011;30894;51.740;19.498;2022-11-12T03:21:11;15.02;;;6.45;;
45136;SDS011;30894;51.740;19.498;2022-11-12T03:23:38;13.15;;;5.38;;
45136;SDS011;30894;51.740;19.498;2022-11-12T03:26:04;18.85;;;7.20;;
45136;SDS011;30894;51.740;19.498;2022-11-12T03:28:30;17.35;;;6.55;;
45136;SDS011;30894;51.740;19.498;2022-11-12T03:30:57;16.95;;;6.70;;
45136;SDS011;30894;51.740;19.498;2022-11-12T03:33:24;15.95;;;6.30;;
45136;SDS011;30894;51.740;19.498;2022-11-12T03:35:53;11.50;;;5.63;;
45136;SDS011;30894;51.740;19.498;2022-11-12T03:38:21;15.52;;;6.38;;
45136;SDS011;30894;51.740;19.498;2022-11-12T03:40:48;9.73;;;5.10;;
45136;SDS011;30894;51.740;19.498;2022-11-12T03:43:13;15.50;;;5.45;;
45136;SDS011;30894;51.740;19.498;2022-11-12T03:45:41;19.08;;;6.57;;
45136;SDS011;30894;51.740;19.498;2022-11-12T03:48:07;21.65;;;6.60;;
45136;SDS011;30894;51.740;19.498;2022-11-12T03:50:33;10.77;;;5.22;;
45136;SDS011;30894;51.740;19.498;2022-11-12T03:52:59;20.27;;;5.88;;
45136;SDS011;30894;51.740;19.498;2022-11-12T03:55:27;15.70;;;7.13;;
45136;SDS011;30894;51.740;19.498;2022-11-12T03:57:54;17.13;;;6.30;;
45136;SDS011;30894;51.740;19.498;2022-11-12T04:00:22;18.42;;;7.22;;
45136;SDS011;30894;51.740;19.498;2022-11-12T04:02:51;9.00;;;5.30;;
45136;SDS011;30894;51.740;19.498;2022-11-12T04:05:18;15.13;;;5.90;;
45136;SDS011;30894;51.740;19.498;2022-11-12T04:08:04;17.88;;;6.60;;
45136;SDS011;30894;51.740;19.498;2022-11-12T04:10:54;19.65;;;7.18;;
45136;SDS011;30894;51.740;19.498;2022-11-12T04:13:19;19.13;;;6.65;;
45136;SDS011;30894;51.740;19.498;2022-11-12T04:15:52;19.15;;;7.90;;
45136;SDS011;30894;51.740;19.498;2022-11-12T04:18:46;14.43;;;7.20;;
45136;SDS011;30894;51.740;19.498;2022-11-12T04:21:48;14.90;;;6.53;;
45136;SDS011;30894;51.740;19.498;2022-11-12T04:24:36;15.93;;;6.28;;
45136;SDS011;30894;51.740;19.498;2022-11-12T04:29:54;19.77;;;6.55;;
45136;SDS011;30894;51.740;19.498;2022-11-12T04:32:45;14.15;;;6.80;;
45136;SDS011;30894;51.740;19.498;2022-11-12T04:35:14;13.70;;;6.57;;
45136;SDS011;30894;51.740;19.498;2022-11-12T04:37:42;15.65;;;6.05;;
45136;SDS011;30894;51.740;19.498;2022-11-12T04:40:10;17.63;;;6.25;;
45136;SDS011;30894;51.740;19.498;2022-11-12T04:43:01;18.13;;;7.35;;
45136;SDS011;30894;51.740;19.498;2022-11-12T04:45:48;12.98;;;6.43;;
45136;SDS011;30894;51.740;19.498;2022-11-12T04:48:17;10.15;;;5.43;;
45136;SDS011;30894;51.740;19.498;2022-11-12T04:50:44;17.70;;;6.38;;
45136;SDS011;30894;51.740;19.498;2022-11-12T04:53:27;12.98;;;6.03;;
45136;SDS011;30894;51.740;19.498;2022-11-12T04:55:55;15.95;;;6.70;;
45136;SDS011;30894;51.740;19.498;2022-11-12T04:58:22;14.05;;;5.55;;
45136;SDS011;30894;51.740;19.498;2022-11-12T05:00:49;13.93;;;6.00;;
45136;SDS011;30894;51.740;19.498;2022-11-12T05:03:16;14.27;;;6.43;;
45136;SDS011;30894;51.740;19.498;2022-11-12T05:05:43;13.45;;;6.03;;
45136;SDS011;30894;51.740;19.498;2022-11-12T05:08:09;16.55;;;5.97;;
45136;SDS011;30894;51.740;19.498;2022-11-12T05:10:35;16.70;;;6.63;;
45136;SDS011;30894;51.740;19.498;2022-11-12T05:13:01;17.27;;;7.43;;
45136;SDS011;30894;51.740;19.498;2022-11-12T05:15:27;21.30;;;7.03;;
45136;SDS011;30894;51.740;19.498;2022-11-12T05:17:53;17.17;;;6.95;;
45136;SDS011;30894;51.740;19.498;2022-11-12T05:20:19;16.63;;;5.85;;
45136;SDS011;30894;51.740;19.498;2022-11-12T05:22:45;14.30;;;6.40;;
45136;SDS011;30894;51.740;19.498;2022-11-12T05:25:11;19.08;;;6.93;;
45136;SDS011;30894;51.740;19.498;2022-11-12T05:27:37;17.58;;;6.90;;
45136;SDS011;30894;51.740;19.498;2022-11-12T05:30:03;15.52;;;6.82;;
45136;SDS011;30894;51.740;19.498;2022-11-12T05:32:30;14.43;;;5.93;;
45136;SDS011;30894;51.740;19.498;2022-11-12T05:34:56;15.63;;;6.72;;
45136;SDS011;30894;51.740;19.498;2022-11-12T05:37:22;13.30;;;7.22;;
45136;SDS011;30894;51.740;19.498;2022-11-12T05:39:48;16.77;;;7.30;;
45136;SDS011;30894;51.740;19.498;2022-11-12T05:42:14;13.30;;;7.65;;
45136;SDS011;30894;51.740;19.498;2022-11-12T05:44:40;14.23;;;6.35;;
45136;SDS011;30894;51.740;19.498;2022-11-12T05:47:06;23.02;;;7.68;;
45136;SDS011;30894;51.740;19.498;2022-11-12T05:49:32;15.85;;;6.53;;
45136;SDS011;30894;51.740;19.498;2022-11-12T05:51:58;16.10;;;7.55;;
45136;SDS011;30894;51.740;19.498;2022-11-12T05:54:24;13.15;;;5.95;;
45136;SDS011;30894;51.740;19.498;2022-11-12T05:56:50;17.42;;;7.22;;
45136;SDS011;30894;51.740;19.498;2022-11-12T05:59:19;14.02;;;7.03;;
45136;SDS011;30894;51.740;19.498;2022-11-12T06:01:46;15.15;;;7.28;;
45136;SDS011;30894;51.740;19.498;2022-11-12T06:04:13;16.30;;;6.15;;
45136;SDS011;30894;51.740;19.498;2022-11-12T06:06:40;17.23;;;7.25;;
45136;SDS011;30894;51.740;19.498;2022-11-12T06:09:08;14.88;;;6.90;;
45136;SDS011;30894;51.740;19.498;2022-11-12T06:11:35;19.67;;;6.82;;
45136;SDS011;30894;51.740;19.498;2022-11-12T06:14:02;14.52;;;6.53;;
45136;SDS011;30894;51.740;19.498;2022-11-12T06:16:29;13.48;;;6.57;;
45136;SDS011;30894;51.740;19.498;2022-11-12T06:18:56;15.63;;;6.78;;
45136;SDS011;30894;51.740;19.498;2022-11-12T06:21:22;18.40;;;6.97;;
45136;SDS011;30894;51.740;19.498;2022-11-12T06:23:53;13.52;;;6.45;;
45136;SDS011;30894;51.740;19.498;2022-11-12T06:26:22;20.15;;;7.18;;
45136;SDS011;30894;51.740;19.498;2022-11-12T06:28:53;19.38;;;7.50;;
45136;SDS011;30894;51.740;19.498;2022-11-12T06:31:21;15.15;;;6.47;;
45136;SDS011;30894;51.740;19.498;2022-11-12T06:33:48;21.30;;;7.40;;
45136;SDS011;30894;51.740;19.498;2022-11-12T06:36:16;21.13;;;7.82;;
45136;SDS011;30894;51.740;19.498;2022-11-12T06:38:44;12.48;;;6.65;;
45136;SDS011;30894;51.740;19.498;2022-11-12T06:41:11;16.17;;;7.18;;
45136;SDS011;30894;51.740;19.498;2022-11-12T06:43:38;20.95;;;7.00;;
45136;SDS011;30894;51.740;19.498;2022-11-12T06:46:06;17.58;;;7.18;;
45136;SDS011;30894;51.740;19.498;2022-11-12T06:48:36;15.90;;;7.00;;
45136;SDS011;30894;51.740;19.498;2022-11-12T06:51:15;17.15;;;7.03;;
45136;SDS011;30894;51.740;19.498;2022-11-12T06:53:44;16.63;;;7.20;;
45136;SDS011;30894;51.740;19.498;2022-11-12T06:56:11;15.30;;;5.97;;
45136;SDS011;30894;51.740;19.498;2022-11-12T06:58:38;18.25;;;7.85;;
45136;SDS011;30894;51.740;19.498;2022-11-12T07:01:05;15.95;;;6.72;;
45136;SDS011;30894;51.740;19.498;2022-11-12T07:03:35;18.80;;;7.30;;
45136;SDS011;30894;51.740;19.498;2022-11-12T07:06:05;13.13;;;6.85;;
45136;SDS011;30894;51.740;19.498;2022-11-12T07:08:35;19.77;;;7.80;;
45136;SDS011;30894;51.740;19.498;2022-11-12T07:11:03;13.88;;;6.97;;
45136;SDS011;30894;51.740;19.498;2022-11-12T07:13:31;19.95;;;6.88;;
45136;SDS011;30894;51.740;19.498;2022-11-12T07:15:59;23.75;;;7.65;;
45136;SDS011;30894;51.740;19.498;2022-11-12T07:18:26;11.20;;;6.55;;
45136;SDS011;30894;51.740;19.498;2022-11-12T07:20:56;16.55;;;7.90;;
45136;SDS011;30894;51.740;19.498;2022-11-12T07:23:31;15.60;;;7.03;;
45136;SDS011;30894;51.740;19.498;2022-11-12T07:26:06;22.65;;;8.52;;
45136;SDS011;30894;51.740;19.498;2022-11-12T07:28:38;24.02;;;9.18;;
45136;SDS011;30894;51.740;19.498;2022-11-12T07:31:05;24.48;;;8.20;;
45136;SDS011;30894;51.740;19.498;2022-11-12T07:33:35;23.45;;;8.68;;
45136;SDS011;30894;51.740;19.498;2022-11-12T07:36:03;22.75;;;9.48;;
45136;SDS011;30894;51.740;19.498;2022-11-12T07:38:33;17.40;;;6.78;;
45136;SDS011;30894;51.740;19.498;2022-11-12T07:41:02;23.70;;;7.82;;
45136;SDS011;30894;51.740;19.498;2022-11-12T07:43:30;17.80;;;8.23;;
45136;SDS011;30894;51.740;19.498;2022-11-12T07:45:58;25.27;;;9.15;;
45136;SDS011;30894;51.740;19.498;2022-11-12T07:48:36;23.08;;;9.00;;
45136;SDS011;30894;51.740;19.498;2022-11-12T07:53:32;19.67;;;7.47;;
45136;SDS011;30894;51.740;19.498;2022-11-12T07:55:59;26.35;;;10.25;;
45136;SDS011;30894;51.740;19.498;2022-11-12T07:58:29;17.52;;;7.90;;
45136;SDS011;30894;51.740;19.498;2022-11-12T08:01:22;25.92;;;9.05;;
45136;SDS011;30894;51.740;19.498;2022-11-12T08:03:53;15.57;;;7.00;;
45136;SDS011;30894;51.740;19.498;2022-11-12T08:06:19;24.77;;;9.32;;
45136;SDS011;30894;51.740;19.498;2022-11-12T08:08:46;15.55;;;7.25;;
45136;SDS011;30894;51.740;19.498;2022-11-12T08:11:13;17.27;;;8.10;;
45136;SDS011;30894;51.740;19.498;2022-11-12T08:13:39;23.42;;;8.30;;
45136;SDS011;30894;51.740;19.498;2022-11-12T08:16:06;17.33;;;7.57;;
45136;SDS011;30894;51.740;19.498;2022-11-12T08:18:33;16.23;;;7.45;;
45136;SDS011;30894;51.740;19.498;2022-11-12T08:21:00;23.52;;;7.68;;
45136;SDS011;30894;51.740;19.498;2022-11-12T08:23:28;18.08;;;7.32;;
45136;SDS011;30894;51.740;19.498;2022-11-12T08:25:58;24.75;;;8.00;;
45136;SDS011;30894;51.740;19.498;2022-11-12T08:28:30;19.23;;;7.38;;
45136;SDS011;30894;51.740;19.498;2022-11-12T08:31:05;16.15;;;7.18;;
45136;SDS011;30894;51.740;19.498;2022-11-12T08:33:34;20.90;;;7.60;;
45136;SDS011;30894;51.740;19.498;2022-11-12T08:36:03;22.05;;;8.93;;
45136;SDS011;30894;51.740;19.498;2022-11-12T08:38:31;23.92;;;8.93;;
45136;SDS011;30894;51.740;19.498;2022-11-12T08:41:01;25.63;;;8.77;;
45136;SDS011;30894;51.740;19.498;2022-11-12T08:43:33;19.25;;;7.30;;
45136;SDS011;30894;51.740;19.498;2022-11-12T08:46:04;21.77;;;8.98;;
45136;SDS011;30894;51.740;19.498;2022-11-12T08:48:31;18.45;;;8.70;;
45136;SDS011;30894;51.740;19.498;2022-11-12T08:51:02;20.38;;;8.27;;
45136;SDS011;30894;51.740;19.498;2022-11-12T08:53:30;22.60;;;8.45;;
45136;SDS011;30894;51.740;19.498;2022-11-12T08:55:57;23.92;;;8.85;;
45136;SDS011;30894;51.740;19.498;2022-11-12T08:58:24;21.85;;;8.38;;
45136;SDS011;30894;51.740;19.498;2022-11-12T09:00:50;24.63;;;8.60;;
45136;SDS011;30894;51.740;19.498;2022-11-12T09:03:18;18.25;;;8.90;;
45136;SDS011;30894;51.740;19.498;2022-11-12T09:05:48;22.70;;;8.27;;
45136;SDS011;30894;51.740;19.498;2022-11-12T09:08:17;19.83;;;8.82;;
45136;SDS011;30894;51.740;19.498;2022-11-12T09:10:46;21.63;;;8.80;;
45136;SDS011;30894;51.740;19.498;2022-11-12T09:13:16;18.88;;;8.18;;
45136;SDS011;30894;51.740;19.498;2022-11-12T09:15:44;25.17;;;8.90;;
45136;SDS011;30894;51.740;19.498;2022-11-12T09:18:13;20.95;;;9.23;;
45136;SDS011;30894;51.740;19.498;2022-11-12T09:20:47;23.33;;;9.30;;
45136;SDS011;30894;51.740;19.498;2022-11-12T09:23:14;26.40;;;10.48;;
45136;SDS011;30894;51.740;19.498;2022-11-12T09:25:41;24.80;;;9.75;;
45136;SDS011;30894;51.740;19.498;2022-11-12T09:28:12;20.98;;;8.95;;
45136;SDS011;30894;51.740;19.498;2022-11-12T09:30:41;20.98;;;8.48;;
45136;SDS011;30894;51.740;19.498;2022-11-12T09:33:12;24.23;;;8.27;;
45136;SDS011;30894;51.740;19.498;2022-11-12T09:35:39;17.88;;;8.18;;
45136;SDS011;30894;51.740;19.498;2022-11-12T09:38:06;21.83;;;8.20;;
45136;SDS011;30894;51.740;19.498;2022-11-12T09:40:38;21.52;;;8.43;;
45136;SDS011;30894;51.740;19.498;2022-11-12T09:46:02;19.63;;;9.35;;
45136;SDS011;30894;51.740;19.498;2022-11-12T09:48:41;25.40;;;9.73;;
45136;SDS011;30894;51.740;19.498;2022-11-12T09:51:26;23.45;;;9.45;;
45136;SDS011;30894;51.740;19.498;2022-11-12T09:53:57;25.15;;;8.45;;
45136;SDS011;30894;51.740;19.498;2022-11-12T09:56:27;20.20;;;8.90;;
45136;SDS011;30894;51.740;19.498;2022-11-12T09:58:54;18.20;;;8.55;;
45136;SDS011;30894;51.740;19.498;2022-11-12T10:01:41;15.43;;;7.72;;
45136;SDS011;30894;51.740;19.498;2022-11-12T10:04:37;18.77;;;8.70;;
45136;SDS011;30894;51.740;19.498;2022-11-12T10:07:41;22.70;;;9.73;;
45136;SDS011;30894;51.740;19.498;2022-11-12T10:10:46;18.23;;;7.72;;
45136;SDS011;30894;51.740;19.498;2022-11-12T10:19:21;20.95;;;9.93;;
45136;SDS011;30894;51.740;19.498;2022-11-12T10:24:53;20.52;;;8.48;;
45136;SDS011;30894;51.740;19.498;2022-11-12T10:27:21;23.38;;;9.52;;
45136;SDS011;30894;51.740;19.498;2022-11-12T10:30:12;20.70;;;8.23;;
45136;SDS011;30894;51.740;19.498;2022-11-12T10:32:44;20.48;;;7.82;;
45136;SDS011;30894;51.740;19.498;2022-11-12T10:35:13;18.25;;;8.00;;
45136;SDS011;30894;51.740;19.498;2022-11-12T10:45:28;19.02;;;8.40;;
45136;SDS011;30894;51.740;19.498;2022-11-12T10:47:56;21.90;;;8.88;;
45136;SDS011;30894;51.740;19.498;2022-11-12T10:50:24;21.13;;;8.80;;
45136;SDS011;30894;51.740;19.498;2022-11-12T10:53:00;20.27;;;7.88;;
45136;SDS011;30894;51.740;19.498;2022-11-12T10:55:30;23.83;;;8.32;;
45136;SDS011;30894;51.740;19.498;2022-11-12T11:00:51;22.88;;;9.93;;
45136;SDS011;30894;51.740;19.498;2022-11-12T11:03:46;22.05;;;9.13;;
45136;SDS011;30894;51.740;19.498;2022-11-12T11:06:23;25.02;;;9.70;;
45136;SDS011;30894;51.740;19.498;2022-11-12T11:08:52;22.63;;;8.68;;
45136;SDS011;30894;51.740;19.498;2022-11-12T11:11:47;21.77;;;8.82;;
45136;SDS011;30894;51.740;19.498;2022-11-12T11:16:50;19.08;;;7.68;;
45136;SDS011;30894;51.740;19.498;2022-11-12T11:19:19;22.48;;;7.93;;
45136;SDS011;30894;51.740;19.498;2022-11-12T11:30:16;17.02;;;7.93;;
45136;SDS011;30894;51.740;19.498;2022-11-12T11:38:55;21.50;;;8.75;;
45136;SDS011;30894;51.740;19.498;2022-11-12T11:44:48;21.33;;;8.07;;
45136;SDS011;30894;51.740;19.498;2022-11-12T11:47:33;23.58;;;8.77;;
45136;SDS011;30894;51.740;19.498;2022-11-12T11:53:09;20.13;;;9.13;;
45136;SDS011;30894;51.740;19.498;2022-11-12T11:56:01;21.80;;;8.52;;
45136;SDS011;30894;51.740;19.498;2022-11-12T11:58:47;24.42;;;8.35;;
45136;SDS011;30894;51.740;19.498;2022-11-12T12:01:49;19.45;;;8.70;;
45136;SDS011;30894;51.740;19.498;2022-11-12T12:04:49;21.17;;;8.27;;
45136;SDS011;30894;51.740;19.498;2022-11-12T12:22:00;22.20;;;7.95;;
45136;SDS011;30894;51.740;19.498;2022-11-12T12:24:39;16.13;;;7.18;;
45136;SDS011;30894;51.740;19.498;2022-11-12T12:27:18;19.75;;;7.10;;
45136;SDS011;30894;51.740;19.498;2022-11-12T12:29:59;19.58;;;8.85;;
45136;SDS011;30894;51.740;19.498;2022-11-12T12:35:24;18.83;;;8.05;;
45136;SDS011;30894;51.740;19.498;2022-11-12T12:38:11;20.52;;;7.65;;
45136;SDS011;30894;51.740;19.498;2022-11-12T12:41:00;18.15;;;6.95;;
45136;SDS011;30894;51.740;19.498;2022-11-12T12:46:09;16.38;;;8.27;;
45136;SDS011;30894;51.740;19.498;2022-11-12T12:48:39;24.80;;;10.02;;
45136;SDS011;30894;51.740;19.498;2022-11-12T12:51:09;19.63;;;8.00;;
45136;SDS011;30894;51.740;19.498;2022-11-12T12:53:36;18.15;;;8.13;;
45136;SDS011;30894;51.740;19.498;2022-11-12T12:56:04;17.15;;;7.45;;
45136;SDS011;30894;51.740;19.498;2022-11-12T12:58:52;22.42;;;8.25;;
45136;SDS011;30894;51.740;19.498;2022-11-12T13:17:00;18.52;;;6.95;;
45136;SDS011;30894;51.740;19.498;2022-11-12T13:19:43;18.23;;;8.25;;
45136;SDS011;30894;51.740;19.498;2022-11-12T13:30:08;18.95;;;8.30;;
45136;SDS011;30894;51.740;19.498;2022-11-12T13:32:41;22.80;;;8.20;;
45136;SDS011;30894;51.740;19.498;2022-11-12T13:37:50;18.88;;;7.75;;
45136;SDS011;30894;51.740;19.498;2022-11-12T13:40:44;19.58;;;7.53;;
45136;SDS011;30894;51.740;19.498;2022-11-12T13:43:38;18.15;;;6.97;;
45136;SDS011;30894;51.740;19.498;2022-11-12T13:53:57;27.02;;;9.30;;
45136;SDS011;30894;51.740;19.498;2022-11-12T13:56:26;18.95;;;7.78;;
45136;SDS011;30894;51.740;19.498;2022-11-12T13:59:17;17.83;;;7.63;;
45136;SDS011;30894;51.740;19.498;2022-11-12T14:01:47;23.15;;;8.88;;
45136;SDS011;30894;51.740;19.498;2022-11-12T14:04:17;18.02;;;8.30;;
45136;SDS011;30894;51.740;19.498;2022-11-12T14:06:49;21.67;;;8.68;;
45136;SDS011;30894;51.740;19.498;2022-11-12T14:15:15;22.20;;;8.40;;
45136;SDS011;30894;51.740;19.498;2022-11-12T14:20:55;16.83;;;6.95;;
45136;SDS011;30894;51.740;19.498;2022-11-12T14:23:22;16.48;;;7.40;;
45136;SDS011;30894;51.740;19.498;2022-11-12T14:25:50;17.92;;;7.97;;
45136;SDS011;30894;51.740;19.498;2022-11-12T14:28:27;18.90;;;8.30;;
45136;SDS011;30894;51.740;19.498;2022-11-12T14:30:58;22.90;;;9.10;;
45136;SDS011;30894;51.740;19.498;2022-11-12T14:33:27;20.25;;;8.60;;
45136;SDS011;30894;51.740;19.498;2022-11-12T14:35:58;18.13;;;9.10;;
45136;SDS011;30894;51.740;19.498;2022-11-12T14:38:32;23.05;;;9.45;;
45136;SDS011;30894;51.740;19.498;2022-11-12T14:41:07;17.90;;;8.90;;
45136;SDS011;30894;51.740;19.498;2022-11-12T14:43:45;27.15;;;9.75;;
45136;SDS011;30894;51.740;19.498;2022-11-12T14:46:32;19.52;;;9.25;;
45136;SDS011;30894;51.740;19.498;2022-11-12T14:52:06;20.15;;;9.02;;
45136;SDS011;30894;51.740;19.498;2022-11-12T14:54:53;20.10;;;7.95;;
45136;SDS011;30894;51.740;19.498;2022-11-12T14:57:34;21.90;;;8.52;;
45136;SDS011;30894;51.740;19.498;2022-11-12T15:00:14;17.25;;;7.95;;
45136;SDS011;30894;51.740;19.498;2022-11-12T15:03:02;20.48;;;8.88;;
45136;SDS011;30894;51.740;19.498;2022-11-12T15:05:30;15.02;;;7.53;;
45136;SDS011;30894;51.740;19.498;2022-11-12T15:07:57;15.50;;;6.32;;
45136;SDS011;30894;51.740;19.498;2022-11-12T15:10:40;18.88;;;6.75;;
45136;SDS011;30894;51.740;19.498;2022-11-12T15:15:53;19.20;;;6.97;;
45136;SDS011;30894;51.740;19.498;2022-11-12T15:18:25;13.05;;;6.38;;
45136;SDS011;30894;51.740;19.498;2022-11-12T15:23:46;18.85;;;8.13;;
45136;SDS011;30894;51.740;19.498;2022-11-12T15:26:36;15.85;;;7.78;;
45136;SDS011;30894;51.740;19.498;2022-11-12T15:32:27;45.35;;;15.38;;
45136;SDS011;30894;51.740;19.498;2022-11-12T15:34:48;22.73;;;9.38;;
45136;SDS011;30894;51.740;19.498;2022-11-12T15:39:58;22.55;;;8.80;;
45136;SDS011;30894;51.740;19.498;2022-11-12T15:42:37;20.15;;;8.02;;
45136;SDS011;30894;51.740;19.498;2022-11-12T15:47:44;19.38;;;8.48;;
45136;SDS011;30894;51.740;19.498;2022-11-12T15:50:14;21.27;;;8.25;;
45136;SDS011;30894;51.740;19.498;2022-11-12T15:52:43;18.90;;;8.10;;
45136;SDS011;30894;51.740;19.498;2022-11-12T15:55:12;17.50;;;6.85;;
45136;SDS011;30894;51.740;19.498;2022-11-12T15:57:43;17.83;;;8.23;;
45136;SDS011;30894;51.740;19.498;2022-11-12T16:00:20;26.95;;;10.10;;
45136;SDS011;30894;51.740;19.498;2022-11-12T16:02:56;24.17;;;8.52;;
45136;SDS011;30894;51.740;19.498;2022-11-12T16:05:42;24.00;;;8.30;;
45136;SDS011;30894;51.740;19.498;2022-11-12T16:08:09;25.70;;;9.35;;
45136;SDS011;30894;51.740;19.498;2022-11-12T16:10:36;22.83;;;8.50;;
45136;SDS011;30894;51.740;19.498;2022-11-12T16:13:04;20.55;;;7.80;;
45136;SDS011;30894;51.740;19.498;2022-11-12T16:15:38;24.02;;;8.27;;
45136;SDS011;30894;51.740;19.498;2022-11-12T16:18:07;16.02;;;7.50;;
45136;SDS011;30894;51.740;19.498;2022-11-12T16:20:36;21.00;;;7.90;;
45136;SDS011;30894;51.740;19.498;2022-11-12T16:23:04;22.38;;;7.63;;
45136;SDS011;30894;51.740;19.498;2022-11-12T16:25:31;21.17;;;7.72;;
45136;SDS011;30894;51.740;19.498;2022-11-12T16:28:00;27.25;;;9.90;;
45136;SDS011;30894;51.740;19.498;2022-11-12T16:30:28;23.35;;;8.45;;
45136;SDS011;30894;51.740;19.498;2022-11-12T16:32:57;23.05;;;10.05;;
45136;SDS011;30894;51.740;19.498;2022-11-12T16:35:25;24.48;;;9.65;;
45136;SDS011;30894;51.740;19.498;2022-11-12T16:37:53;22.90;;;9.15;;
45136;SDS011;30894;51.740;19.498;2022-11-12T16:40:21;23.70;;;9.77;;
45136;SDS011;30894;51.740;19.498;2022-11-12T16:42:50;23.65;;;9.10;;
45136;SDS011;30894;51.740;19.498;2022-11-12T16:45:17;19.13;;;8.50;;
45136;SDS011;30894;51.740;19.498;2022-11-12T16:47:51;17.10;;;8.13;;
45136;SDS011;30894;51.740;19.498;2022-11-12T16:50:24;25.77;;;9.30;;
45136;SDS011;30894;51.740;19.498;2022-11-12T16:52:52;24.75;;;9.48;;
45136;SDS011;30894;51.740;19.498;2022-11-12T16:55:21;24.75;;;9.77;;
45136;SDS011;30894;51.740;19.498;2022-11-12T16:57:47;17.77;;;7.60;;